Conquistador — XPD5425 — position and weather

sailwx.info

Track history (hours):
 
Tides and Currents Weather Stations Pressure Air Temp Water Temp Dewpoint Dewpoint Depression Visibility Wind Speed Wind Dir Waves Ship Positions

Conquistador

Last reported at 2017-Sep-18 09:11 UTC. Time now 2017-Sep-23 04:10 UTC.
Position N 37°26' E 024°57'.

Length 13 m.

Type: Pleasure craft. MMSI: 219006077.

Date/timePositionNaut miles runAvg speedWind from/ knotsBaromVisibWave heightAir tempDewpointWater temp
2017-Sep-18 09:11N 37°26' E 024°57'1 3.3
2017-Sep-18 09:00N 37°26' E 024°58'4 5.4
2017-Sep-18 08:10N 37°26' E 025°04'1 5.4
2017-Sep-18 08:00N 37°27' E 025°05'3 5.6
2017-Sep-18 07:30N 37°26' E 025°08'3 5.5
2017-Sep-18 06:59N 37°27' E 025°12'3 5.4
2017-Sep-18 06:30N 37°26' E 025°15'3 5.3
2017-Sep-18 06:00N 37°24' E 025°17'3 5.1
2017-Sep-18 05:30N 37°24' E 025°21'3 5.4
2017-Sep-18 05:00N 37°24' E 025°24'3 5.2
2017-Sep-18 04:30N 37°26' E 025°27'  
2017-Sep-13 16:10N 37°27' E 025°27'0 0.1
2017-Sep-13 15:59N 37°27' E 025°27'2 4.8
2017-Sep-13 15:30N 37°26' E 025°30'3 6.0
2017-Sep-13 15:00N 37°27' E 025°34'4 6.0
2017-Sep-13 14:19N 37°27' E 025°39'8 6.5
2017-Sep-13 13:06N 37°29' E 025°49'1 7.0
2017-Sep-13 12:58N 37°29' E 025°50'3 7.0
2017-Sep-13 12:31N 37°29' E 025°54'  
Track history (hours):
 
Tides and Currents Weather Stations Pressure Air Temp Water Temp Dewpoint Dewpoint Depression Visibility Wind Speed Wind Dir Waves Ship Positions

Conquistador

Last reported at 2017-Sep-18 09:11 UTC. Time now 2017-Sep-23 04:10 UTC.
Position N 37°26' E 024°57'.

Length 13 m.

Type: Pleasure craft. MMSI: 219006077.

Date/timePositionNaut miles runAvg speedWind from/ knotsBaromVisibWave heightAir tempDewpointWater temp
2017-Sep-18 09:11N 37°26' E 024°57'1 3.3
2017-Sep-18 09:00N 37°26' E 024°58'4 5.4
2017-Sep-18 08:10N 37°26' E 025°04'1 5.4
2017-Sep-18 08:00N 37°27' E 025°05'3 5.6
2017-Sep-18 07:30N 37°26' E 025°08'3 5.5
2017-Sep-18 06:59N 37°27' E 025°12'3 5.4
2017-Sep-18 06:30N 37°26' E 025°15'3 5.3
2017-Sep-18 06:00N 37°24' E 025°17'3 5.1
2017-Sep-18 05:30N 37°24' E 025°21'3 5.4
2017-Sep-18 05:00N 37°24' E 025°24'3 5.2
2017-Sep-18 04:30N 37°26' E 025°27'  
2017-Sep-13 16:10N 37°27' E 025°27'0 0.1
2017-Sep-13 15:59N 37°27' E 025°27'2 4.8
2017-Sep-13 15:30N 37°26' E 025°30'3 6.0
2017-Sep-13 15:00N 37°27' E 025°34'4 6.0
2017-Sep-13 14:19N 37°27' E 025°39'8 6.5
2017-Sep-13 13:06N 37°29' E 025°49'1 7.0
2017-Sep-13 12:58N 37°29' E 025°50'3 7.0
2017-Sep-13 12:31N 37°29' E 025°54'  

Dump ship's entire track history